Time;durP1;ratioP1;P1;durP2;ratioP2;P2;SDS_P1;SDS_P2;PMS_P1;PMS_P2;Temp;Humidity;BMP_temperature;BMP_pressure;BME280_temperature;BME280_humidity;BME280_pressure;Samples;Min_cycle;Max_cycle;Signal;HPM_P1;HPM_P2
2022/06/24 00:00:29;;;;;;;9.77;2.17;;;;;;;;;;4951135;28;20461;-67
2022/06/24 00:02:55;;;;;;;5.23;2.07;;;;;;;;;;4953548;28;20446;-67
2022/06/24 00:05:21;;;;;;;7.53;2.10;;;;;;;;;;4952083;28;20418;-65
2022/06/24 00:07:48;;;;;;;5.23;1.93;;;;;;;;;;4956870;28;21191;-66
2022/06/24 00:10:15;;;;;;;6.07;2.73;;;;;;;;;;4955342;28;20418;-67
2022/06/24 00:12:41;;;;;;;12.90;3.33;;;;;;;;;;4956337;28;20753;-67
2022/06/24 00:15:07;;;;;;;6.80;2.37;;;;;;;;;;4957460;28;20413;-67
2022/06/24 00:17:33;;;;;;;6.13;1.97;;;;;;;;;;4963362;28;20474;-66
2022/06/24 00:20:01;;;;;;;6.90;2.03;;;;;;;;;;4956910;28;20460;-66
2022/06/24 00:22:28;;;;;;;6.70;2.03;;;;;;;;;;4955485;28;20464;-68
2022/06/24 00:25:08;;;;;;;2.47;1.50;;;;;;;;;;4956594;28;20883;-67
2022/06/24 00:27:34;;;;;;;4.10;2.00;;;;;;;;;;4964421;28;20401;-67
2022/06/24 00:30:07;;;;;;;2.73;1.90;;;;;;;;;;4971588;28;20503;-67
2022/06/24 00:32:33;;;;;;;3.47;1.73;;;;;;;;;;4970381;28;20503;-68
2022/06/24 00:35:04;;;;;;;3.70;1.60;;;;;;;;;;4966420;28;20512;-68
2022/06/24 00:37:31;;;;;;;6.33;2.10;;;;;;;;;;4959873;28;20417;-66
2022/06/24 00:40:00;;;;;;;9.70;2.10;;;;;;;;;;4962025;28;20501;-68
2022/06/24 00:42:27;;;;;;;6.30;1.57;;;;;;;;;;4955769;28;20609;-66
2022/06/24 00:45:16;;;;;;;11.47;2.83;;;;;;;;;;4956798;28;20878;-68
2022/06/24 00:47:42;;;;;;;8.70;3.37;;;;;;;;;;4926354;28;20430;-67
2022/06/24 00:50:18;;;;;;;5.30;1.60;;;;;;;;;;4968079;28;20609;-66
2022/06/24 00:52:45;;;;;;;12.87;2.70;;;;;;;;;;4955455;28;20892;-67
2022/06/24 00:55:12;;;;;;;7.43;2.10;;;;;;;;;;4969356;28;20413;-67
2022/06/24 00:57:39;;;;;;;6.03;2.23;;;;;;;;;;4961117;28;20822;-68
2022/06/24 01:00:05;;;;;;;6.70;2.07;;;;;;;;;;4955663;28;20500;-67
2022/06/24 01:02:32;;;;;;;4.90;1.87;;;;;;;;;;4954520;28;20499;-68
2022/06/24 01:05:08;;;;;;;9.57;1.80;;;;;;;;;;4956314;28;20420;-67
2022/06/24 01:07:41;;;;;;;8.23;2.17;;;;;;;;;;4954573;28;20429;-68
2022/06/24 01:10:08;;;;;;;4.33;1.73;;;;;;;;;;4954217;28;20416;-67
2022/06/24 01:12:35;;;;;;;4.40;1.70;;;;;;;;;;4954104;28;20950;-67
2022/06/24 01:15:05;;;;;;;6.10;2.20;;;;;;;;;;4955551;28;20838;-68
2022/06/24 01:17:31;;;;;;;4.07;2.67;;;;;;;;;;4960980;28;20457;-67
2022/06/24 01:19:57;;;;;;;5.33;2.03;;;;;;;;;;4957255;28;20911;-67
2022/06/24 01:22:24;;;;;;;4.37;2.27;;;;;;;;;;4954073;28;20532;-65
2022/06/24 01:24:50;;;;;;;4.70;1.87;;;;;;;;;;4954945;28;20469;-66
2022/06/24 01:27:17;;;;;;;8.10;2.30;;;;;;;;;;4954228;28;20410;-67
2022/06/24 01:29:43;;;;;;;4.80;2.00;;;;;;;;;;4954042;28;20418;-66
2022/06/24 01:32:09;;;;;;;4.93;2.43;;;;;;;;;;4954901;28;20964;-67
2022/06/24 01:34:35;;;;;;;4.73;2.70;;;;;;;;;;4966853;28;20930;-67
2022/06/24 01:37:02;;;;;;;10.00;2.00;;;;;;;;;;4965848;28;20452;-66
2022/06/24 01:39:29;;;;;;;4.50;1.93;;;;;;;;;;4966671;28;20425;-67
2022/06/24 01:41:55;;;;;;;6.23;2.10;;;;;;;;;;4966684;28;20875;-65
2022/06/24 01:44:24;;;;;;;5.20;1.90;;;;;;;;;;4961446;28;20430;-67
2022/06/24 01:46:51;;;;;;;3.87;2.27;;;;;;;;;;4953628;28;20958;-67
2022/06/24 01:49:17;;;;;;;4.80;2.40;;;;;;;;;;4953802;28;20550;-67
2022/06/24 01:51:45;;;;;;;8.00;1.80;;;;;;;;;;4962475;28;20455;-67
2022/06/24 01:54:11;;;;;;;4.90;1.90;;;;;;;;;;4971306;28;20444;-67
2022/06/24 01:56:37;;;;;;;9.80;2.20;;;;;;;;;;4967579;28;20417;-67
2022/06/24 01:59:03;;;;;;;5.37;1.63;;;;;;;;;;4953827;28;21180;-67
2022/06/24 02:01:30;;;;;;;8.87;2.50;;;;;;;;;;4953254;28;20863;-66
2022/06/24 02:03:56;;;;;;;2.83;1.80;;;;;;;;;;4954913;28;20509;-67
2022/06/24 02:06:22;;;;;;;4.53;2.03;;;;;;;;;;4953678;28;20410;-66
2022/06/24 02:08:48;;;;;;;5.03;2.27;;;;;;;;;;4953063;28;20494;-67
2022/06/24 02:14:00;;;;;;;6.77;2.20;;;;;;;;;;4954707;28;20464;-66
2022/06/24 02:16:27;;;;;;;4.77;2.40;;;;;;;;;;4952740;28;20425;-67
2022/06/24 02:18:54;;;;;;;6.23;2.53;;;;;;;;;;4969125;28;20509;-67
2022/06/24 02:21:23;;;;;;;4.83;1.93;;;;;;;;;;4960062;28;20507;-66
2022/06/24 02:23:49;;;;;;;10.87;2.13;;;;;;;;;;4953079;28;20434;-66
2022/06/24 02:26:16;;;;;;;5.43;2.30;;;;;;;;;;4954411;28;20457;-66
2022/06/24 02:28:42;;;;;;;4.80;2.63;;;;;;;;;;4952296;28;20426;-67
2022/06/24 02:31:09;;;;;;;5.47;2.10;;;;;;;;;;4954718;28;20426;-66
2022/06/24 02:33:35;;;;;;;4.10;2.40;;;;;;;;;;4960664;28;20448;-66
2022/06/24 02:36:01;;;;;;;4.57;2.33;;;;;;;;;;4965515;28;20425;-67
2022/06/24 02:38:27;;;;;;;3.63;2.37;;;;;;;;;;4966836;28;20561;-67
2022/06/24 02:40:53;;;;;;;7.00;3.40;;;;;;;;;;4966474;28;20480;-66
2022/06/24 02:43:21;;;;;;;4.50;2.43;;;;;;;;;;4967113;28;20492;-66
2022/06/24 02:45:49;;;;;;;6.30;2.73;;;;;;;;;;4966173;28;20940;-66
2022/06/24 02:48:15;;;;;;;5.63;2.40;;;;;;;;;;4965492;28;20417;-66
2022/06/24 02:50:42;;;;;;;10.73;3.03;;;;;;;;;;4966502;28;20449;-67
2022/06/24 02:53:08;;;;;;;3.73;2.70;;;;;;;;;;4965803;28;20443;-66
2022/06/24 02:55:35;;;;;;;9.63;2.47;;;;;;;;;;4962089;28;20426;-65
2022/06/24 02:58:01;;;;;;;9.83;2.73;;;;;;;;;;4964322;28;20439;-66
2022/06/24 03:00:27;;;;;;;5.50;2.30;;;;;;;;;;4965505;28;20469;-66
2022/06/24 03:02:53;;;;;;;8.17;2.50;;;;;;;;;;4965785;28;20445;-66
2022/06/24 03:05:19;;;;;;;6.70;2.47;;;;;;;;;;4965797;28;20417;-67
2022/06/24 03:07:45;;;;;;;14.13;2.63;;;;;;;;;;4966328;28;20428;-66
2022/06/24 03:10:12;;;;;;;6.20;2.57;;;;;;;;;;4964659;28;20429;-64
2022/06/24 03:12:38;;;;;;;4.97;2.20;;;;;;;;;;4967240;28;20939;-66
2022/06/24 03:15:04;;;;;;;8.80;2.57;;;;;;;;;;4964986;28;20460;-66
2022/06/24 03:17:30;;;;;;;12.67;3.53;;;;;;;;;;4969674;28;20423;-67
2022/06/24 03:19:56;;;;;;;7.73;2.50;;;;;;;;;;4957783;28;20422;-66
2022/06/24 03:22:22;;;;;;;9.60;2.70;;;;;;;;;;4952926;28;20474;-67
2022/06/24 03:24:48;;;;;;;8.00;2.30;;;;;;;;;;4952805;28;20417;-66
2022/06/24 03:27:14;;;;;;;6.30;2.60;;;;;;;;;;4953398;28;20436;-66
2022/06/24 03:29:40;;;;;;;11.13;2.80;;;;;;;;;;4952180;28;20422;-66
2022/06/24 03:32:07;;;;;;;10.23;3.00;;;;;;;;;;4963805;28;20475;-66
2022/06/24 03:34:33;;;;;;;11.57;2.97;;;;;;;;;;4961382;28;20526;-66
2022/06/24 03:36:59;;;;;;;7.70;2.57;;;;;;;;;;4953081;28;20433;-67
2022/06/24 03:39:25;;;;;;;11.93;3.70;;;;;;;;;;4951884;28;20760;-67
2022/06/24 03:41:51;;;;;;;8.37;3.10;;;;;;;;;;4956723;28;20476;-66
2022/06/24 03:44:17;;;;;;;11.50;3.53;;;;;;;;;;4964398;28;20410;-67
2022/06/24 03:46:43;;;;;;;7.73;3.20;;;;;;;;;;4965628;28;20898;-66
2022/06/24 03:49:10;;;;;;;15.00;3.33;;;;;;;;;;4963898;28;20592;-66
2022/06/24 03:51:36;;;;;;;12.00;2.57;;;;;;;;;;4965673;28;20475;-67
2022/06/24 03:54:02;;;;;;;8.13;2.30;;;;;;;;;;4969064;28;20808;-65
2022/06/24 03:56:28;;;;;;;16.50;3.57;;;;;;;;;;4969248;28;20460;-66
2022/06/24 03:58:55;;;;;;;7.00;2.47;;;;;;;;;;4951771;28;20813;-65
2022/06/24 04:01:21;;;;;;;6.43;2.37;;;;;;;;;;4952195;28;20517;-67
2022/06/24 04:03:47;;;;;;;6.43;2.30;;;;;;;;;;4952207;28;20525;-67
2022/06/24 04:06:13;;;;;;;5.63;2.40;;;;;;;;;;4952778;28;20446;-66
2022/06/24 04:08:39;;;;;;;6.50;2.07;;;;;;;;;;4951052;28;20425;-66
2022/06/24 04:11:12;;;;;;;11.50;3.23;;;;;;;;;;4953015;28;20449;-66
2022/06/24 04:13:38;;;;;;;12.60;3.60;;;;;;;;;;4951784;28;21102;-66
2022/06/24 04:16:04;;;;;;;19.60;2.93;;;;;;;;;;4952651;28;20536;-66
2022/06/24 04:18:31;;;;;;;17.10;3.37;;;;;;;;;;4960695;28;20421;-66
2022/06/24 04:20:57;;;;;;;14.13;3.20;;;;;;;;;;4964696;28;20468;-66
2022/06/24 04:23:23;;;;;;;3.40;2.10;;;;;;;;;;4964871;28;20988;-66
2022/06/24 04:25:49;;;;;;;11.10;4.20;;;;;;;;;;4965812;28;20563;-66
2022/06/24 04:28:16;;;;;;;8.23;2.53;;;;;;;;;;4953756;28;20414;-67
2022/06/24 04:30:42;;;;;;;7.30;2.50;;;;;;;;;;4960318;28;20489;-69
2022/06/24 04:33:08;;;;;;;6.10;2.37;;;;;;;;;;4960093;28;20448;-69
2022/06/24 04:35:35;;;;;;;16.40;3.70;;;;;;;;;;4952621;28;20913;-68
2022/06/24 04:38:01;;;;;;;12.70;4.70;;;;;;;;;;4958984;28;20433;-69
2022/06/24 04:40:27;;;;;;;10.53;3.80;;;;;;;;;;4965075;28;20445;-68
2022/06/24 04:42:53;;;;;;;11.80;3.67;;;;;;;;;;4965682;28;20440;-69
2022/06/24 04:45:19;;;;;;;6.53;2.83;;;;;;;;;;4957417;28;20414;-69
2022/06/24 04:47:46;;;;;;;6.63;3.60;;;;;;;;;;4966377;28;20874;-69
2022/06/24 04:50:12;;;;;;;6.77;3.37;;;;;;;;;;4962609;28;20535;-69
2022/06/24 04:52:39;;;;;;;5.70;3.10;;;;;;;;;;4966946;28;20456;-69
2022/06/24 04:55:06;;;;;;;7.53;3.67;;;;;;;;;;4959066;28;20879;-69
2022/06/24 04:57:32;;;;;;;10.50;3.77;;;;;;;;;;4954611;28;20426;-69
2022/06/24 04:59:58;;;;;;;9.27;3.53;;;;;;;;;;4954530;28;20464;-70
2022/06/24 05:02:24;;;;;;;9.33;4.80;;;;;;;;;;4959205;28;20469;-69
2022/06/24 05:04:50;;;;;;;13.40;4.07;;;;;;;;;;4968319;28;20433;-69
2022/06/24 05:07:16;;;;;;;13.00;4.27;;;;;;;;;;4956116;28;20417;-69
2022/06/24 05:09:43;;;;;;;15.80;4.70;;;;;;;;;;4952880;28;20418;-69
2022/06/24 05:12:09;;;;;;;7.40;3.60;;;;;;;;;;4955174;28;21037;-70
2022/06/24 05:14:35;;;;;;;10.53;3.03;;;;;;;;;;4954000;28;20578;-69
2022/06/24 05:17:01;;;;;;;7.40;4.50;;;;;;;;;;4953851;28;20426;-70
2022/06/24 05:19:28;;;;;;;9.80;4.07;;;;;;;;;;4976921;28;20438;-69
2022/06/24 05:21:54;;;;;;;9.97;3.80;;;;;;;;;;4963749;28;20519;-70
2022/06/24 05:24:22;;;;;;;9.17;2.70;;;;;;;;;;4958337;28;20872;-70
2022/06/24 05:26:48;;;;;;;12.10;4.30;;;;;;;;;;4954762;28;20869;-70
2022/06/24 05:29:14;;;;;;;12.10;3.40;;;;;;;;;;4958706;28;20488;-70
2022/06/24 05:31:40;;;;;;;17.17;3.57;;;;;;;;;;4956595;28;20444;-70
2022/06/24 05:34:09;;;;;;;9.27;4.17;;;;;;;;;;4978246;28;20415;-70
2022/06/24 05:36:35;;;;;;;10.23;3.87;;;;;;;;;;4960807;28;20414;-70
2022/06/24 05:39:02;;;;;;;8.70;3.53;;;;;;;;;;4962467;28;20433;-70
2022/06/24 05:41:29;;;;;;;6.40;3.47;;;;;;;;;;4955097;28;20457;-70
2022/06/24 05:43:55;;;;;;;11.50;4.27;;;;;;;;;;4963145;28;20899;-69
2022/06/24 05:46:21;;;;;;;12.43;4.00;;;;;;;;;;4960557;28;20917;-69
2022/06/24 05:48:47;;;;;;;14.33;3.93;;;;;;;;;;4970351;28;20769;-68
2022/06/24 05:51:15;;;;;;;10.70;3.47;;;;;;;;;;4969426;28;20457;-67
2022/06/24 05:56:27;;;;;;;5.93;3.27;;;;;;;;;;4969862;28;20427;-68
2022/06/24 05:58:53;;;;;;;21.90;4.70;;;;;;;;;;4962636;28;20785;-69
2022/06/24 06:01:19;;;;;;;13.57;3.60;;;;;;;;;;4950904;29;20592;-68
2022/06/24 06:03:47;;;;;;;8.43;3.43;;;;;;;;;;4950462;28;20425;-68
2022/06/24 06:06:13;;;;;;;9.27;3.80;;;;;;;;;;4963332;28;20483;-68
2022/06/24 06:08:40;;;;;;;7.97;2.90;;;;;;;;;;4950418;28;20421;-67
2022/06/24 06:11:16;;;;;;;12.53;3.20;;;;;;;;;;4964039;28;20423;-68
2022/06/24 06:13:42;;;;;;;11.90;3.00;;;;;;;;;;4968218;28;20444;-68
2022/06/24 06:16:09;;;;;;;8.53;3.03;;;;;;;;;;4955639;28;20765;-68
2022/06/24 06:18:35;;;;;;;9.33;2.83;;;;;;;;;;4974531;28;20861;-67
2022/06/24 06:21:02;;;;;;;12.93;3.20;;;;;;;;;;4952072;28;20830;-66
2022/06/24 06:23:28;;;;;;;9.30;3.50;;;;;;;;;;4959324;28;20436;-67
2022/06/24 06:25:55;;;;;;;9.93;3.00;;;;;;;;;;4957842;28;20417;-68
2022/06/24 06:28:21;;;;;;;16.00;3.20;;;;;;;;;;4957958;28;20418;-67
2022/06/24 06:30:47;;;;;;;10.07;2.90;;;;;;;;;;4952029;28;20426;-66
2022/06/24 06:33:14;;;;;;;10.73;4.30;;;;;;;;;;4953163;28;20940;-67
2022/06/24 06:35:40;;;;;;;13.47;3.20;;;;;;;;;;4958689;28;20413;-68
2022/06/24 06:38:06;;;;;;;12.07;3.73;;;;;;;;;;4964405;28;20449;-68
2022/06/24 06:40:35;;;;;;;16.67;2.77;;;;;;;;;;4985419;28;20421;-69
2022/06/24 06:43:02;;;;;;;9.73;2.63;;;;;;;;;;4964664;28;20451;-69
2022/06/24 06:45:28;;;;;;;9.47;2.70;;;;;;;;;;4960327;28;20764;-68
2022/06/24 06:47:54;;;;;;;9.07;2.97;;;;;;;;;;4961788;28;20430;-67
2022/06/24 06:50:21;;;;;;;12.37;3.17;;;;;;;;;;4951960;28;20418;-67
2022/06/24 06:52:47;;;;;;;7.77;2.40;;;;;;;;;;4961828;28;20917;-67
2022/06/24 06:55:13;;;;;;;8.30;2.80;;;;;;;;;;4971941;28;20817;-68
2022/06/24 06:57:39;;;;;;;14.03;2.97;;;;;;;;;;4960681;28;20480;-67
2022/06/24 07:00:06;;;;;;;6.90;2.60;;;;;;;;;;4954692;28;20421;-68
2022/06/24 07:02:32;;;;;;;8.03;3.50;;;;;;;;;;4965001;28;20468;-69
2022/06/24 07:04:58;;;;;;;8.33;2.73;;;;;;;;;;4954507;28;20414;-69
2022/06/24 07:07:24;;;;;;;10.30;2.80;;;;;;;;;;4969943;28;20424;-68
2022/06/24 07:09:51;;;;;;;8.97;2.40;;;;;;;;;;4958430;28;20414;-69
2022/06/24 07:12:17;;;;;;;11.47;3.00;;;;;;;;;;4961097;28;20453;-69
2022/06/24 07:14:43;;;;;;;6.93;2.40;;;;;;;;;;4953509;28;20425;-68
2022/06/24 07:17:10;;;;;;;8.43;2.40;;;;;;;;;;4960041;28;20561;-68
2022/06/24 07:19:36;;;;;;;11.23;4.63;;;;;;;;;;4991702;28;20744;-69
2022/06/24 07:22:03;;;;;;;11.23;4.90;;;;;;;;;;4990445;28;20461;-68
2022/06/24 07:24:29;;;;;;;5.17;3.20;;;;;;;;;;4955750;28;20544;-68
2022/06/24 07:26:55;;;;;;;7.17;3.40;;;;;;;;;;4956352;28;20901;-67
2022/06/24 07:29:24;;;;;;;24.00;3.43;;;;;;;;;;4954432;28;20429;-69
2022/06/24 07:31:50;;;;;;;14.87;4.60;;;;;;;;;;4951830;28;20620;-68
2022/06/24 07:34:16;;;;;;;10.07;3.77;;;;;;;;;;4964442;28;20449;-68
2022/06/24 07:36:42;;;;;;;10.10;3.93;;;;;;;;;;4956629;28;20414;-68
2022/06/24 07:39:09;;;;;;;8.40;3.40;;;;;;;;;;4955503;28;20510;-71
2022/06/24 07:41:35;;;;;;;5.20;3.33;;;;;;;;;;4950323;28;20478;-67
2022/06/24 07:44:01;;;;;;;10.63;3.17;;;;;;;;;;4954147;28;20426;-66
2022/06/24 07:46:27;;;;;;;9.10;3.83;;;;;;;;;;4967336;28;20443;-68
2022/06/24 07:48:54;;;;;;;13.40;3.37;;;;;;;;;;4967252;28;20466;-68
2022/06/24 07:51:21;;;;;;;13.77;3.93;;;;;;;;;;4951227;28;20453;-67
2022/06/24 07:53:47;;;;;;;9.43;3.57;;;;;;;;;;4958930;28;20416;-67
2022/06/24 07:58:59;;;;;;;8.70;3.90;;;;;;;;;;4968424;28;20480;-67
2022/06/24 08:01:25;;;;;;;13.13;3.70;;;;;;;;;;4964750;28;20512;-67
2022/06/24 08:03:51;;;;;;;8.10;3.00;;;;;;;;;;4949859;28;20525;-68
2022/06/24 08:06:17;;;;;;;11.57;3.70;;;;;;;;;;4954111;28;20536;-68
2022/06/24 08:08:43;;;;;;;11.57;3.37;;;;;;;;;;4956321;28;20452;-67
2022/06/24 08:11:09;;;;;;;8.50;3.57;;;;;;;;;;4983012;28;20455;-68
2022/06/24 08:13:36;;;;;;;7.67;2.70;;;;;;;;;;4987571;28;20456;-68
2022/06/24 08:16:02;;;;;;;6.40;2.53;;;;;;;;;;4979259;28;20468;-69
2022/06/24 08:18:28;;;;;;;18.73;3.70;;;;;;;;;;4970261;28;20897;-68
2022/06/24 08:20:54;;;;;;;7.20;2.97;;;;;;;;;;4981215;28;20463;-68
2022/06/24 08:23:20;;;;;;;4.73;2.87;;;;;;;;;;4957653;28;20468;-68
2022/06/24 08:25:46;;;;;;;13.47;2.87;;;;;;;;;;4964486;28;21260;-66
2022/06/24 08:28:12;;;;;;;13.67;3.90;;;;;;;;;;4967246;28;20887;-67
2022/06/24 08:30:38;;;;;;;6.57;2.97;;;;;;;;;;4962608;28;20409;-67
2022/06/24 08:33:05;;;;;;;10.27;3.63;;;;;;;;;;4970668;28;20451;-67
2022/06/24 08:35:31;;;;;;;9.00;3.30;;;;;;;;;;4968101;28;20428;-66
2022/06/24 08:37:58;;;;;;;8.40;3.60;;;;;;;;;;4953089;29;20488;-69
2022/06/24 08:40:25;;;;;;;4.40;2.33;;;;;;;;;;4952150;29;20413;-70
2022/06/24 08:42:55;;;;;;;4.10;3.03;;;;;;;;;;4953140;28;20517;-70
2022/06/24 08:45:21;;;;;;;7.60;3.10;;;;;;;;;;4948172;28;20460;-68
2022/06/24 08:47:48;;;;;;;6.60;2.93;;;;;;;;;;4972028;28;20408;-69
2022/06/24 08:50:14;;;;;;;5.20;2.73;;;;;;;;;;4971087;28;20439;-69
2022/06/24 08:52:46;;;;;;;16.23;4.70;;;;;;;;;;4964679;28;20858;-68
2022/06/24 08:55:15;;;;;;;9.23;4.00;;;;;;;;;;4971071;28;20496;-68
2022/06/24 08:57:41;;;;;;;9.03;3.33;;;;;;;;;;4966553;28;20445;-68
2022/06/24 09:00:07;;;;;;;9.67;3.07;;;;;;;;;;4953529;28;20425;-67
2022/06/24 09:02:33;;;;;;;6.27;3.50;;;;;;;;;;4954097;28;20469;-69
2022/06/24 09:05:00;;;;;;;9.37;3.67;;;;;;;;;;4953164;28;20439;-69
2022/06/24 09:07:29;;;;;;;11.27;3.40;;;;;;;;;;4966121;28;20428;-68
2022/06/24 09:10:04;;;;;;;8.30;2.80;;;;;;;;;;4956564;28;20512;-67
2022/06/24 09:12:40;;;;;;;14.03;3.43;;;;;;;;;;5005469;23;20633;-68
2022/06/24 09:15:07;;;;;;;5.90;2.70;;;;;;;;;;5018777;28;20494;-68
2022/06/24 09:17:34;;;;;;;36.37;5.70;;;;;;;;;;5012667;28;20510;-68
2022/06/24 09:20:11;;;;;;;9.43;3.30;;;;;;;;;;4995573;28;20419;-68
2022/06/24 09:22:37;;;;;;;8.73;3.37;;;;;;;;;;5027076;28;20458;-67
2022/06/24 09:25:36;;;;;;;17.77;4.00;;;;;;;;;;5057905;28;20401;-66
2022/06/24 09:28:28;;;;;;;8.63;3.10;;;;;;;;;;4955282;29;20426;-69
2022/06/24 09:31:04;;;;;;;8.03;2.60;;;;;;;;;;5030876;28;20431;-67
2022/06/24 09:33:40;;;;;;;18.43;3.40;;;;;;;;;;5032083;28;20507;-68
2022/06/24 09:36:07;;;;;;;7.60;2.73;;;;;;;;;;5036889;28;20975;-68
2022/06/24 09:38:51;;;;;;;13.07;3.00;;;;;;;;;;5047666;28;20416;-68
2022/06/24 09:41:17;;;;;;;13.00;3.23;;;;;;;;;;5032321;28;20546;-67
2022/06/24 09:43:44;;;;;;;14.87;3.47;;;;;;;;;;5034563;28;20413;-68
2022/06/24 09:46:16;;;;;;;15.60;3.30;;;;;;;;;;5030795;28;20414;-68
2022/06/24 09:48:42;;;;;;;8.30;3.63;;;;;;;;;;5030000;28;20568;-67
2022/06/24 09:51:09;;;;;;;8.13;3.10;;;;;;;;;;5030084;28;20505;-67
2022/06/24 09:53:36;;;;;;;3.83;2.23;;;;;;;;;;5029394;28;20914;-68
2022/06/24 09:56:03;;;;;;;5.60;2.00;;;;;;;;;;5035407;28;20414;-68
2022/06/24 09:58:29;;;;;;;5.37;2.70;;;;;;;;;;5037658;28;20795;-68
2022/06/24 10:00:55;;;;;;;10.80;4.20;;;;;;;;;;5049772;28;20532;-67
2022/06/24 10:03:22;;;;;;;6.77;3.93;;;;;;;;;;5050992;28;20418;-68
2022/06/24 10:05:49;;;;;;;7.17;2.40;;;;;;;;;;5049626;28;20417;-68
2022/06/24 10:08:24;;;;;;;6.60;2.60;;;;;;;;;;5031609;28;20424;-68
2022/06/24 10:10:50;;;;;;;7.80;2.60;;;;;;;;;;5033538;28;20452;-68
2022/06/24 10:13:24;;;;;;;7.33;2.83;;;;;;;;;;5044583;28;20456;-67
2022/06/24 10:15:50;;;;;;;9.97;2.60;;;;;;;;;;5031753;28;20497;-68
2022/06/24 10:18:19;;;;;;;6.30;2.70;;;;;;;;;;5030067;28;20472;-67
2022/06/24 10:20:46;;;;;;;5.33;2.53;;;;;;;;;;5031694;28;20513;-67
2022/06/24 10:23:31;;;;;;;3.50;2.47;;;;;;;;;;5012385;28;20727;-67
2022/06/24 10:25:57;;;;;;;3.70;2.60;;;;;;;;;;5040612;28;20484;-69
2022/06/24 10:28:23;;;;;;;3.00;2.33;;;;;;;;;;5028945;28;20421;-66
2022/06/24 10:30:58;;;;;;;16.07;3.90;;;;;;;;;;5039514;28;20792;-67
2022/06/24 10:33:26;;;;;;;8.67;4.50;;;;;;;;;;5031500;28;20422;-69
2022/06/24 10:35:56;;;;;;;10.27;3.60;;;;;;;;;;5029863;28;20775;-69
2022/06/24 10:38:23;;;;;;;7.80;2.90;;;;;;;;;;5027957;28;20417;-68
2022/06/24 10:40:49;;;;;;;5.43;2.60;;;;;;;;;;5028292;28;20575;-67
2022/06/24 10:43:33;;;;;;;7.73;2.80;;;;;;;;;;5049722;28;20499;-67
2022/06/24 10:46:16;;;;;;;6.77;2.60;;;;;;;;;;5044644;28;20997;-68
2022/06/24 10:48:47;;;;;;;5.00;2.50;;;;;;;;;;5048578;28;20409;-68
2022/06/24 10:51:16;;;;;;;7.93;3.67;;;;;;;;;;5040893;28;20859;-68
2022/06/24 10:54:01;;;;;;;19.00;4.70;;;;;;;;;;5044611;28;20684;-67
2022/06/24 10:56:42;;;;;;;6.73;3.23;;;;;;;;;;5029595;28;20452;-68
2022/06/24 10:59:08;;;;;;;5.30;2.53;;;;;;;;;;5029596;28;20416;-67
2022/06/24 11:01:34;;;;;;;5.20;2.57;;;;;;;;;;5010039;28;20518;-70
2022/06/24 11:04:04;;;;;;;4.23;2.20;;;;;;;;;;5030833;28;20421;-69
2022/06/24 11:06:30;;;;;;;10.40;2.47;;;;;;;;;;5048672;28;20761;-67
2022/06/24 11:09:05;;;;;;;4.37;2.37;;;;;;;;;;5039128;28;20493;-68
2022/06/24 11:11:31;;;;;;;4.57;2.10;;;;;;;;;;5046939;28;20396;-68
2022/06/24 11:13:57;;;;;;;11.37;3.00;;;;;;;;;;5047161;28;21186;-66
2022/06/24 11:16:28;;;;;;;6.93;2.63;;;;;;;;;;5047991;28;20416;-68
2022/06/24 11:18:54;;;;;;;8.30;3.27;;;;;;;;;;5022894;28;20469;-68
2022/06/24 11:21:20;;;;;;;12.33;3.03;;;;;;;;;;5025819;28;20845;-68
2022/06/24 11:23:47;;;;;;;9.33;2.80;;;;;;;;;;5029426;28;20440;-67
2022/06/24 11:26:15;;;;;;;12.53;2.90;;;;;;;;;;5033183;28;20409;-68
2022/06/24 11:28:42;;;;;;;6.37;2.33;;;;;;;;;;5033441;28;20492;-67
2022/06/24 11:31:21;;;;;;;6.33;2.63;;;;;;;;;;5025663;28;20432;-66
2022/06/24 11:33:48;;;;;;;10.17;2.77;;;;;;;;;;5027022;28;20425;-67
2022/06/24 11:36:15;;;;;;;15.10;3.60;;;;;;;;;;5037040;28;20414;-69
2022/06/24 11:38:59;;;;;;;4.93;2.60;;;;;;;;;;5029779;28;20517;-68
2022/06/24 11:41:29;;;;;;;5.87;2.90;;;;;;;;;;5028206;28;20458;-68
2022/06/24 11:43:55;;;;;;;7.87;3.03;;;;;;;;;;5028571;28;20480;-68
2022/06/24 11:46:21;;;;;;;8.53;3.07;;;;;;;;;;5037467;28;20479;-67
2022/06/24 11:48:48;;;;;;;5.43;2.90;;;;;;;;;;5042131;28;20425;-68
2022/06/24 11:51:21;;;;;;;7.60;2.43;;;;;;;;;;5029452;28;20414;-68
2022/06/24 11:54:00;;;;;;;13.27;3.60;;;;;;;;;;5011023;28;20420;-67
2022/06/24 11:56:32;;;;;;;11.27;3.90;;;;;;;;;;5028385;28;20540;-67
2022/06/24 11:59:02;;;;;;;4.60;2.63;;;;;;;;;;5027880;28;20508;-68
2022/06/24 12:01:28;;;;;;;14.70;3.70;;;;;;;;;;5028204;28;20453;-67
2022/06/24 12:03:56;;;;;;;8.40;3.73;;;;;;;;;;5036937;28;20412;-68
2022/06/24 12:06:23;;;;;;;8.40;3.13;;;;;;;;;;5048376;28;20454;-67
2022/06/24 12:08:50;;;;;;;7.50;3.00;;;;;;;;;;5043616;28;20426;-67
2022/06/24 12:11:17;;;;;;;7.67;2.83;;;;;;;;;;5033703;28;20472;-68
2022/06/24 12:13:54;;;;;;;9.20;3.20;;;;;;;;;;5032943;28;20793;-68
2022/06/24 12:16:21;;;;;;;14.13;4.33;;;;;;;;;;5043657;28;20925;-68
2022/06/24 12:18:47;;;;;;;17.73;4.20;;;;;;;;;;5026482;28;20475;-68
2022/06/24 12:21:13;;;;;;;26.47;6.00;;;;;;;;;;5035730;28;20820;-67
2022/06/24 12:23:42;;;;;;;13.93;3.83;;;;;;;;;;5053155;28;20414;-69
2022/06/24 12:26:21;;;;;;;14.93;4.03;;;;;;;;;;5050946;28;21066;-68
2022/06/24 12:29:05;;;;;;;12.90;4.47;;;;;;;;;;5034510;28;20414;-68
2022/06/24 12:31:34;;;;;;;12.83;2.87;;;;;;;;;;5032273;28;20426;-68
2022/06/24 12:34:00;;;;;;;5.70;2.53;;;;;;;;;;5030540;28;20422;-67
2022/06/24 12:36:41;;;;;;;4.07;2.43;;;;;;;;;;5038778;28;20419;-67
2022/06/24 12:39:08;;;;;;;8.70;2.47;;;;;;;;;;5015247;28;21057;-68
2022/06/24 12:41:43;;;;;;;4.40;2.40;;;;;;;;;;5041717;28;20544;-67
2022/06/24 12:44:09;;;;;;;6.27;2.50;;;;;;;;;;5052238;28;20892;-68
2022/06/24 12:46:36;;;;;;;4.13;2.43;;;;;;;;;;5044576;28;20517;-67
2022/06/24 12:51:57;;;;;;;4.73;2.30;;;;;;;;;;5032492;28;20503;-69
2022/06/24 12:54:23;;;;;;;9.57;3.50;;;;;;;;;;5031382;28;20460;-68
2022/06/24 12:56:49;;;;;;;5.87;2.00;;;;;;;;;;5027604;28;20418;-68
2022/06/24 12:59:16;;;;;;;8.43;3.00;;;;;;;;;;5050777;28;20405;-68
2022/06/24 13:01:44;;;;;;;5.87;2.60;;;;;;;;;;5050666;28;20832;-67
2022/06/24 13:04:10;;;;;;;6.20;2.43;;;;;;;;;;5039316;28;20432;-69
2022/06/24 13:06:36;;;;;;;6.47;2.70;;;;;;;;;;5046129;28;20418;-66
2022/06/24 13:09:03;;;;;;;13.03;3.03;;;;;;;;;;5032315;28;20457;-66
2022/06/24 13:11:29;;;;;;;17.63;3.20;;;;;;;;;;5031449;28;20980;-69
2022/06/24 13:13:56;;;;;;;13.47;3.40;;;;;;;;;;5040902;28;20429;-68
2022/06/24 13:16:22;;;;;;;16.00;3.50;;;;;;;;;;5048939;28;20850;-69
2022/06/24 13:18:48;;;;;;;16.70;3.90;;;;;;;;;;5020323;28;20434;-68
2022/06/24 13:21:14;;;;;;;20.57;4.20;;;;;;;;;;5031059;28;20450;-68
2022/06/24 13:23:40;;;;;;;10.90;3.33;;;;;;;;;;5030281;28;20409;-70
2022/06/24 13:26:06;;;;;;;10.10;3.47;;;;;;;;;;5031046;28;20526;-70
2022/06/24 13:28:35;;;;;;;17.87;4.23;;;;;;;;;;5043304;28;20419;-69
2022/06/24 13:31:04;;;;;;;11.03;3.80;;;;;;;;;;5030510;28;21259;-69
2022/06/24 13:33:30;;;;;;;16.97;4.20;;;;;;;;;;5040016;28;20448;-69
2022/06/24 13:35:56;;;;;;;6.30;3.33;;;;;;;;;;5047929;28;20989;-69
2022/06/24 13:38:23;;;;;;;10.27;3.07;;;;;;;;;;5044947;28;20425;-68
2022/06/24 13:40:49;;;;;;;8.30;3.17;;;;;;;;;;5027660;28;20415;-68
2022/06/24 13:43:18;;;;;;;11.83;3.53;;;;;;;;;;5042285;28;20436;-68
2022/06/24 13:45:45;;;;;;;32.47;4.90;;;;;;;;;;5047965;28;20409;-67
2022/06/24 13:48:11;;;;;;;42.87;5.80;;;;;;;;;;5045358;28;20440;-70
2022/06/24 13:50:37;;;;;;;8.43;3.30;;;;;;;;;;5046486;28;20398;-68
2022/06/24 13:53:03;;;;;;;10.67;3.70;;;;;;;;;;5032580;28;20426;-67
2022/06/24 13:55:29;;;;;;;20.00;4.00;;;;;;;;;;5013601;28;20397;-68
2022/06/24 13:57:56;;;;;;;19.73;4.90;;;;;;;;;;5043531;28;20943;-69
2022/06/24 14:00:22;;;;;;;15.17;4.63;;;;;;;;;;5050027;28;20405;-68
2022/06/24 14:02:48;;;;;;;4.60;2.73;;;;;;;;;;5038440;28;20489;-70
2022/06/24 14:05:14;;;;;;;17.63;3.80;;;;;;;;;;5029526;28;20426;-69
2022/06/24 14:07:40;;;;;;;6.23;3.00;;;;;;;;;;5040803;28;20500;-70
2022/06/24 14:10:06;;;;;;;10.80;4.43;;;;;;;;;;5045854;28;20535;-69
2022/06/24 14:12:32;;;;;;;8.90;2.90;;;;;;;;;;5050016;28;20444;-69
2022/06/24 14:14:59;;;;;;;13.43;3.03;;;;;;;;;;5037474;28;20426;-68
2022/06/24 14:17:25;;;;;;;7.50;2.87;;;;;;;;;;5035000;28;20418;-69
2022/06/24 14:19:51;;;;;;;4.83;2.33;;;;;;;;;;5029441;28;20453;-68
2022/06/24 14:22:17;;;;;;;6.00;3.17;;;;;;;;;;5042822;28;20468;-69
2022/06/24 14:24:45;;;;;;;9.60;2.57;;;;;;;;;;5019948;28;20476;-71
2022/06/24 14:27:11;;;;;;;5.10;2.70;;;;;;;;;;5044021;28;20429;-68
2022/06/24 14:29:38;;;;;;;14.53;3.23;;;;;;;;;;5032802;28;20430;-67
2022/06/24 14:32:04;;;;;;;9.77;2.73;;;;;;;;;;5029021;28;20445;-69
2022/06/24 14:34:33;;;;;;;10.73;2.67;;;;;;;;;;5028936;28;20419;-70
2022/06/24 14:37:00;;;;;;;14.50;3.50;;;;;;;;;;5029878;28;20418;-70
2022/06/24 14:42:11;;;;;;;9.67;2.87;;;;;;;;;;5046803;28;20837;-68
2022/06/24 14:44:37;;;;;;;11.93;2.93;;;;;;;;;;5020192;28;20425;-70
2022/06/24 14:47:04;;;;;;;6.17;2.47;;;;;;;;;;5035454;28;20423;-70
2022/06/24 14:49:31;;;;;;;8.63;2.47;;;;;;;;;;5029289;28;20398;-68
2022/06/24 14:51:57;;;;;;;6.60;2.57;;;;;;;;;;5028795;28;20517;-69
2022/06/24 14:54:23;;;;;;;9.37;2.80;;;;;;;;;;5029774;28;20468;-69